Lady Alida — PBFF — position and weather

sailwx.info

Track history (hours):
 
Tides and Currents Weather Stations Pressure Air Temp Water Temp Dewpoint Dewpoint Depression Visibility Wind Speed Wind Dir Waves Ship Positions

Lady Alida

Last reported at 2017-Dec-18 00:53 UTC. Time now 2017-Dec-18 01:11 UTC.
Position N 52°16' W 007°02'.

Length 88 m; draft 4.9 m.

Type: Cargo ship. MMSI: 244630415.

Date/timePositionNaut miles runAvg speedWind from/ knotsBaromVisibWave heightAir tempDewpointWater temp
2017-Dec-18 00:53N 52°16' W 007°02'0 0.0
2017-Dec-18 00:26N 52°16' W 007°02'0 0.0
2017-Dec-17 23:59N 52°16' W 007°02'0 0.0
2017-Dec-17 23:26N 52°16' W 007°02'0 0.0
2017-Dec-17 22:56N 52°16' W 007°02'0 0.0
2017-Dec-17 22:26N 52°16' W 007°02'0 0.0
2017-Dec-17 21:56N 52°16' W 007°02'0 0.0
2017-Dec-17 21:26N 52°16' W 007°02'0 0.0
2017-Dec-17 20:56N 52°16' W 007°02'0 0.0
2017-Dec-17 20:26N 52°16' W 007°02'0 0.0
2017-Dec-17 19:56N 52°16' W 007°02'0 0.0
2017-Dec-17 19:26N 52°16' W 007°02'0 0.0
2017-Dec-17 18:56N 52°16' W 007°02'0 0.0
2017-Dec-17 18:20N 52°16' W 007°02'0 0.0
2017-Dec-17 17:56N 52°16' W 007°02'0 0.0
2017-Dec-17 17:26N 52°16' W 007°02'0 0.0
2017-Dec-17 16:14N 52°16' W 007°02'0 0.0
2017-Dec-17 15:50N 52°16' W 007°02'0 0.0
2017-Dec-17 15:14N 52°16' W 007°02'0 0.0
2017-Dec-17 14:56N 52°16' W 007°02'0 0.0
2017-Dec-17 14:26N 52°16' W 007°02'0 0.0
2017-Dec-17 08:44N 52°16' W 007°02'0 0.0
2017-Dec-17 07:56N 52°16' W 007°02'0 0.0
2017-Dec-17 07:20N 52°16' W 007°02'0 0.0
2017-Dec-17 06:56N 52°16' W 007°02'0 0.0
2017-Dec-17 06:26N 52°16' W 007°02'0 0.0
2017-Dec-17 05:38N 52°16' W 007°02'0 0.0
2017-Dec-17 04:47N 52°16' W 007°02'0 0.0
2017-Dec-17 03:56N 52°16' W 007°02'0 0.0
2017-Dec-17 03:29N 52°16' W 007°02'0 0.0
2017-Dec-17 02:50N 52°16' W 007°02'0 0.0
2017-Dec-17 02:26N 52°16' W 007°02'0 0.0
2017-Dec-17 01:08N 52°16' W 007°02'0 0.0
2017-Dec-16 23:14N 52°16' W 007°02'0 0.0
2017-Dec-16 22:50N 52°16' W 007°02'0 0.0
2017-Dec-16 19:08N 52°16' W 007°02'0 0.0
2017-Dec-16 19:00N 52°16' W 007°02'2 3.8
2017-Dec-16 18:30N 52°16' W 006°59'4 7.5
2017-Dec-16 18:00N 52°13' W 006°56'5 9.4
2017-Dec-16 17:30N 52°09' W 006°57'4 8.3
2017-Dec-16 17:00N 52°04' W 006°56'5 9.9
2017-Dec-16 16:30N 51°60' W 006°54'142 7.2
2017-Dec-15 20:57N 49°58' W 004°60'510.2
2017-Dec-15 20:30N 49°59' W 004°53'510.0
2017-Dec-15 20:00N 50°01' W 004°46'5 9.8
2017-Dec-15 19:30N 50°02' W 004°38'5 9.6
2017-Dec-15 19:00N 50°04' W 004°31'5 9.5
2017-Dec-15 18:30N 50°05' W 004°24'5 9.1
2017-Dec-15 18:00N 50°07' W 004°17'4 8.8
2017-Dec-15 17:30N 50°07' W 004°11'4 8.5
2017-Dec-15 17:00N 50°08' W 004°04'4 8.4
2017-Dec-15 16:30N 50°09' W 003°58'5 8.2
2017-Dec-15 15:55N 50°09' W 003°50'4 7.9
2017-Dec-15 15:28N 50°10' W 003°45'4 8.0
2017-Dec-15 15:00N 50°11' W 003°39'4 8.2
2017-Dec-15 14:30N 50°12' W 003°33'5 9.0
2017-Dec-15 14:00N 50°14' W 003°27'5 9.6
2017-Dec-15 13:30N 50°17' W 003°21'510.0
2017-Dec-15 13:00N 50°19' W 003°14'510.1
2017-Dec-15 12:30N 50°22' W 003°07'510.2
2017-Dec-15 12:00N 50°25' W 003°00'510.2
2017-Dec-15 11:30N 50°27' W 002°53'5 9.9
2017-Dec-15 11:00N 50°30' W 002°46'9 9.0
2017-Dec-15 10:00N 50°30' W 002°32'7 7.7
2017-Dec-15 09:07N 50°34' W 002°24'2 9.6
2017-Dec-15 08:54N 50°36' W 002°24'1 0.1
2017-Dec-14 16:43N 50°37' W 002°24'2 5.3
2017-Dec-14 16:18N 50°35' W 002°26'  
2017-Dec-10 11:19N 50°36' W 002°24'2 7.1
2017-Dec-10 11:00N 50°34' W 002°23'5 9.5
2017-Dec-10 10:30N 50°30' W 002°26'4 8.2
2017-Dec-10 09:59N 50°27' W 002°30'4 9.0
2017-Dec-10 09:30N 50°24' W 002°35'4 8.7
2017-Dec-10 09:00N 50°20' W 002°40'5 8.8
2017-Dec-10 08:27N 50°17' W 002°46'4 8.5
2017-Dec-10 08:00N 50°14' W 002°50'4 8.2
2017-Dec-10 07:30N 50°12' W 002°54'4 7.8
2017-Dec-10 07:00N 50°09' W 002°59'4 7.8
2017-Dec-10 06:30N 50°06' W 003°03'4 8.1
2017-Dec-10 06:00N 50°03' W 003°08'5 8.5
2017-Dec-10 05:27N 50°00' W 003°13'4 8.4
2017-Dec-10 05:00N 49°58' W 003°17'4 8.6
2017-Dec-10 04:30N 49°55' W 003°22'4 9.0
2017-Dec-10 04:00N 49°52' W 003°28'82 9.9
2017-Dec-09 19:41N 48°52' W 004°54'211.0
2017-Dec-09 19:30N 48°51' W 004°56'510.9
2017-Dec-09 19:00N 48°47' W 005°02'510.9
2017-Dec-09 18:31N 48°43' W 005°07'510.9
2017-Dec-09 18:01N 48°39' W 005°13'510.7
2017-Dec-09 17:30N 48°35' W 005°18'510.4
2017-Dec-09 17:00N 48°31' W 005°23'5 9.4
2017-Dec-09 16:29N 48°26' W 005°23'510.1
2017-Dec-09 16:00N 48°21' W 005°22'5 9.9
2017-Dec-09 15:30N 48°16' W 005°20'5 9.7
2017-Dec-09 15:00N 48°12' W 005°19'5 9.5
2017-Dec-09 14:30N 48°07' W 005°17'5 9.2
2017-Dec-09 13:59N 48°02' W 005°16'4 8.9
2017-Dec-09 13:30N 47°58' W 005°14'4 8.7
2017-Dec-09 13:00N 47°54' W 005°12'4 8.6
2017-Dec-09 12:30N 47°50' W 005°11'256 8.7
2017-Dec-08 07:09N 43°40' W 003°48'1 8.8
2017-Dec-08 07:01N 43°39' W 003°48'4 8.9
2017-Dec-08 06:30N 43°35' W 003°46'4 8.7
2017-Dec-08 06:00N 43°31' W 003°45'  
Track history (hours):
 
Tides and Currents Weather Stations Pressure Air Temp Water Temp Dewpoint Dewpoint Depression Visibility Wind Speed Wind Dir Waves Ship Positions

Lady Alida

Last reported at 2017-Dec-18 00:53 UTC. Time now 2017-Dec-18 01:11 UTC.
Position N 52°16' W 007°02'.

Length 88 m; draft 4.9 m.

Type: Cargo ship. MMSI: 244630415.

Date/timePositionNaut miles runAvg speedWind from/ knotsBaromVisibWave heightAir tempDewpointWater temp
2017-Dec-18 00:53N 52°16' W 007°02'0 0.0
2017-Dec-18 00:26N 52°16' W 007°02'0 0.0
2017-Dec-17 23:59N 52°16' W 007°02'0 0.0
2017-Dec-17 23:26N 52°16' W 007°02'0 0.0
2017-Dec-17 22:56N 52°16' W 007°02'0 0.0
2017-Dec-17 22:26N 52°16' W 007°02'0 0.0
2017-Dec-17 21:56N 52°16' W 007°02'0 0.0
2017-Dec-17 21:26N 52°16' W 007°02'0 0.0
2017-Dec-17 20:56N 52°16' W 007°02'0 0.0
2017-Dec-17 20:26N 52°16' W 007°02'0 0.0
2017-Dec-17 19:56N 52°16' W 007°02'0 0.0
2017-Dec-17 19:26N 52°16' W 007°02'0 0.0
2017-Dec-17 18:56N 52°16' W 007°02'0 0.0
2017-Dec-17 18:20N 52°16' W 007°02'0 0.0
2017-Dec-17 17:56N 52°16' W 007°02'0 0.0
2017-Dec-17 17:26N 52°16' W 007°02'0 0.0
2017-Dec-17 16:14N 52°16' W 007°02'0 0.0
2017-Dec-17 15:50N 52°16' W 007°02'0 0.0
2017-Dec-17 15:14N 52°16' W 007°02'0 0.0
2017-Dec-17 14:56N 52°16' W 007°02'0 0.0
2017-Dec-17 14:26N 52°16' W 007°02'0 0.0
2017-Dec-17 08:44N 52°16' W 007°02'0 0.0
2017-Dec-17 07:56N 52°16' W 007°02'0 0.0
2017-Dec-17 07:20N 52°16' W 007°02'0 0.0
2017-Dec-17 06:56N 52°16' W 007°02'0 0.0
2017-Dec-17 06:26N 52°16' W 007°02'0 0.0
2017-Dec-17 05:38N 52°16' W 007°02'0 0.0
2017-Dec-17 04:47N 52°16' W 007°02'0 0.0
2017-Dec-17 03:56N 52°16' W 007°02'0 0.0
2017-Dec-17 03:29N 52°16' W 007°02'0 0.0
2017-Dec-17 02:50N 52°16' W 007°02'0 0.0
2017-Dec-17 02:26N 52°16' W 007°02'0 0.0
2017-Dec-17 01:08N 52°16' W 007°02'0 0.0
2017-Dec-16 23:14N 52°16' W 007°02'0 0.0
2017-Dec-16 22:50N 52°16' W 007°02'0 0.0
2017-Dec-16 19:08N 52°16' W 007°02'0 0.0
2017-Dec-16 19:00N 52°16' W 007°02'2 3.8
2017-Dec-16 18:30N 52°16' W 006°59'4 7.5
2017-Dec-16 18:00N 52°13' W 006°56'5 9.4
2017-Dec-16 17:30N 52°09' W 006°57'4 8.3
2017-Dec-16 17:00N 52°04' W 006°56'5 9.9
2017-Dec-16 16:30N 51°60' W 006°54'142 7.2
2017-Dec-15 20:57N 49°58' W 004°60'510.2
2017-Dec-15 20:30N 49°59' W 004°53'510.0
2017-Dec-15 20:00N 50°01' W 004°46'5 9.8
2017-Dec-15 19:30N 50°02' W 004°38'5 9.6
2017-Dec-15 19:00N 50°04' W 004°31'5 9.5
2017-Dec-15 18:30N 50°05' W 004°24'5 9.1
2017-Dec-15 18:00N 50°07' W 004°17'4 8.8
2017-Dec-15 17:30N 50°07' W 004°11'4 8.5
2017-Dec-15 17:00N 50°08' W 004°04'4 8.4
2017-Dec-15 16:30N 50°09' W 003°58'5 8.2
2017-Dec-15 15:55N 50°09' W 003°50'4 7.9
2017-Dec-15 15:28N 50°10' W 003°45'4 8.0
2017-Dec-15 15:00N 50°11' W 003°39'4 8.2
2017-Dec-15 14:30N 50°12' W 003°33'5 9.0
2017-Dec-15 14:00N 50°14' W 003°27'5 9.6
2017-Dec-15 13:30N 50°17' W 003°21'510.0
2017-Dec-15 13:00N 50°19' W 003°14'510.1
2017-Dec-15 12:30N 50°22' W 003°07'510.2
2017-Dec-15 12:00N 50°25' W 003°00'510.2
2017-Dec-15 11:30N 50°27' W 002°53'5 9.9
2017-Dec-15 11:00N 50°30' W 002°46'9 9.0
2017-Dec-15 10:00N 50°30' W 002°32'7 7.7
2017-Dec-15 09:07N 50°34' W 002°24'2 9.6
2017-Dec-15 08:54N 50°36' W 002°24'1 0.1
2017-Dec-14 16:43N 50°37' W 002°24'2 5.3
2017-Dec-14 16:18N 50°35' W 002°26'  
2017-Dec-10 11:19N 50°36' W 002°24'2 7.1
2017-Dec-10 11:00N 50°34' W 002°23'5 9.5
2017-Dec-10 10:30N 50°30' W 002°26'4 8.2
2017-Dec-10 09:59N 50°27' W 002°30'4 9.0
2017-Dec-10 09:30N 50°24' W 002°35'4 8.7
2017-Dec-10 09:00N 50°20' W 002°40'5 8.8
2017-Dec-10 08:27N 50°17' W 002°46'4 8.5
2017-Dec-10 08:00N 50°14' W 002°50'4 8.2
2017-Dec-10 07:30N 50°12' W 002°54'4 7.8
2017-Dec-10 07:00N 50°09' W 002°59'4 7.8
2017-Dec-10 06:30N 50°06' W 003°03'4 8.1
2017-Dec-10 06:00N 50°03' W 003°08'5 8.5
2017-Dec-10 05:27N 50°00' W 003°13'4 8.4
2017-Dec-10 05:00N 49°58' W 003°17'4 8.6
2017-Dec-10 04:30N 49°55' W 003°22'4 9.0
2017-Dec-10 04:00N 49°52' W 003°28'82 9.9
2017-Dec-09 19:41N 48°52' W 004°54'211.0
2017-Dec-09 19:30N 48°51' W 004°56'510.9
2017-Dec-09 19:00N 48°47' W 005°02'510.9
2017-Dec-09 18:31N 48°43' W 005°07'510.9
2017-Dec-09 18:01N 48°39' W 005°13'510.7
2017-Dec-09 17:30N 48°35' W 005°18'510.4
2017-Dec-09 17:00N 48°31' W 005°23'5 9.4
2017-Dec-09 16:29N 48°26' W 005°23'510.1
2017-Dec-09 16:00N 48°21' W 005°22'5 9.9
2017-Dec-09 15:30N 48°16' W 005°20'5 9.7
2017-Dec-09 15:00N 48°12' W 005°19'5 9.5
2017-Dec-09 14:30N 48°07' W 005°17'5 9.2
2017-Dec-09 13:59N 48°02' W 005°16'4 8.9
2017-Dec-09 13:30N 47°58' W 005°14'4 8.7
2017-Dec-09 13:00N 47°54' W 005°12'4 8.6
2017-Dec-09 12:30N 47°50' W 005°11'256 8.7
2017-Dec-08 07:09N 43°40' W 003°48'1 8.8
2017-Dec-08 07:01N 43°39' W 003°48'4 8.9
2017-Dec-08 06:30N 43°35' W 003°46'4 8.7
2017-Dec-08 06:00N 43°31' W 003°45'  

Dump ship's entire track history